sensor_id;sensor_type;location;lat;lon;timestamp;temperature;humidity
69503;SHT31;56704;54.242;12.442;2022-07-01T00:01:45;18.06;85.01
69503;SHT31;56704;54.242;12.442;2022-07-01T00:04:13;18.13;84.97
69503;SHT31;56704;54.242;12.442;2022-07-01T00:06:39;18.08;85.15
69503;SHT31;56704;54.242;12.442;2022-07-01T00:09:06;18.14;84.75
69503;SHT31;56704;54.242;12.442;2022-07-01T00:11:34;18.19;84.74
69503;SHT31;56704;54.242;12.442;2022-07-01T00:14:00;18.14;84.86
69503;SHT31;56704;54.242;12.442;2022-07-01T00:16:27;18.12;85.07
69503;SHT31;56704;54.242;12.442;2022-07-01T00:18:55;18.13;85.22
69503;SHT31;56704;54.242;12.442;2022-07-01T00:21:21;18.12;85.32
69503;SHT31;56704;54.242;12.442;2022-07-01T00:23:48;18.13;85.29
69503;SHT31;56704;54.242;12.442;2022-07-01T00:26:14;18.19;85.24
69503;SHT31;56704;54.242;12.442;2022-07-01T00:29:14;18.20;85.08
69503;SHT31;56704;54.242;12.442;2022-07-01T00:31:43;18.09;85.71
69503;SHT31;56704;54.242;12.442;2022-07-01T00:34:11;18.08;86.00
69503;SHT31;56704;54.242;12.442;2022-07-01T00:36:39;18.05;86.28
69503;SHT31;56704;54.242;12.442;2022-07-01T00:39:05;18.12;86.05
69503;SHT31;56704;54.242;12.442;2022-07-01T00:41:32;18.09;86.21
69503;SHT31;56704;54.242;12.442;2022-07-01T00:43:58;18.10;86.15
69503;SHT31;56704;54.242;12.442;2022-07-01T00:46:25;17.92;86.79
69503;SHT31;56704;54.242;12.442;2022-07-01T00:48:54;17.93;86.99
69503;SHT31;56704;54.242;12.442;2022-07-01T00:51:22;17.95;86.96
69503;SHT31;56704;54.242;12.442;2022-07-01T00:53:49;17.95;87.20
69503;SHT31;56704;54.242;12.442;2022-07-01T00:56:16;17.95;87.20
69503;SHT31;56704;54.242;12.442;2022-07-01T00:58:42;18.03;86.97
69503;SHT31;56704;54.242;12.442;2022-07-01T01:01:09;18.05;86.73
69503;SHT31;56704;54.242;12.442;2022-07-01T01:03:36;18.05;86.79
69503;SHT31;56704;54.242;12.442;2022-07-01T01:06:03;18.10;86.56
69503;SHT31;56704;54.242;12.442;2022-07-01T01:08:31;18.00;87.16
69503;SHT31;56704;54.242;12.442;2022-07-01T01:10:58;17.98;87.31
69503;SHT31;56704;54.242;12.442;2022-07-01T01:13:26;18.08;86.97
69503;SHT31;56704;54.242;12.442;2022-07-01T01:15:53;18.09;86.93
69503;SHT31;56704;54.242;12.442;2022-07-01T01:18:20;18.17;86.61
69503;SHT31;56704;54.242;12.442;2022-07-01T01:20:53;18.20;86.51
69503;SHT31;56704;54.242;12.442;2022-07-01T01:23:22;18.26;86.24
69503;SHT31;56704;54.242;12.442;2022-07-01T01:25:50;18.27;86.12
69503;SHT31;56704;54.242;12.442;2022-07-01T01:28:16;18.23;86.34
69503;SHT31;56704;54.242;12.442;2022-07-01T01:30:45;18.26;86.24
69503;SHT31;56704;54.242;12.442;2022-07-01T01:33:12;18.25;86.18
69503;SHT31;56704;54.242;12.442;2022-07-01T01:35:38;18.29;86.10
69503;SHT31;56704;54.242;12.442;2022-07-01T01:38:12;18.29;86.29
69503;SHT31;56704;54.242;12.442;2022-07-01T01:40:38;18.27;86.20
69503;SHT31;56704;54.242;12.442;2022-07-01T01:43:05;18.25;86.35
69503;SHT31;56704;54.242;12.442;2022-07-01T01:45:34;18.19;86.68
69503;SHT31;56704;54.242;12.442;2022-07-01T01:48:05;18.25;86.42
69503;SHT31;56704;54.242;12.442;2022-07-01T01:50:32;18.26;86.53
69503;SHT31;56704;54.242;12.442;2022-07-01T01:52:59;18.25;86.65
69503;SHT31;56704;54.242;12.442;2022-07-01T01:55:28;18.22;86.62
69503;SHT31;56704;54.242;12.442;2022-07-01T01:57:56;18.22;86.68
69503;SHT31;56704;54.242;12.442;2022-07-01T02:00:24;18.25;86.64
69503;SHT31;56704;54.242;12.442;2022-07-01T02:02:51;18.27;86.57
69503;SHT31;56704;54.242;12.442;2022-07-01T02:05:18;18.26;86.73
69503;SHT31;56704;54.242;12.442;2022-07-01T02:07:46;18.17;87.04
69503;SHT31;56704;54.242;12.442;2022-07-01T02:10:13;18.17;87.11
69503;SHT31;56704;54.242;12.442;2022-07-01T02:12:42;18.14;87.31
69503;SHT31;56704;54.242;12.442;2022-07-01T02:15:11;18.20;87.03
69503;SHT31;56704;54.242;12.442;2022-07-01T02:17:38;18.27;86.89
69503;SHT31;56704;54.242;12.442;2022-07-01T02:20:06;18.29;86.70
69503;SHT31;56704;54.242;12.442;2022-07-01T02:22:33;18.32;86.54
69503;SHT31;56704;54.242;12.442;2022-07-01T02:24:59;18.33;86.46
69503;SHT31;56704;54.242;12.442;2022-07-01T02:27:26;18.32;86.66
69503;SHT31;56704;54.242;12.442;2022-07-01T02:29:54;18.29;86.81
69503;SHT31;56704;54.242;12.442;2022-07-01T02:32:21;18.29;86.79
69503;SHT31;56704;54.242;12.442;2022-07-01T02:34:47;18.32;86.62
69503;SHT31;56704;54.242;12.442;2022-07-01T02:37:14;18.27;86.87
69503;SHT31;56704;54.242;12.442;2022-07-01T02:39:41;18.22;87.34
69503;SHT31;56704;54.242;12.442;2022-07-01T02:42:09;18.14;87.74
69503;SHT31;56704;54.242;12.442;2022-07-01T02:45:01;18.23;87.41
69503;SHT31;56704;54.242;12.442;2022-07-01T02:47:31;18.20;87.45
69503;SHT31;56704;54.242;12.442;2022-07-01T02:49:58;18.19;87.62
69503;SHT31;56704;54.242;12.442;2022-07-01T02:52:25;18.14;87.86
69503;SHT31;56704;54.242;12.442;2022-07-01T02:54:52;18.22;87.61
69503;SHT31;56704;54.242;12.442;2022-07-01T02:57:21;18.16;87.92
69503;SHT31;56704;54.242;12.442;2022-07-01T02:59:49;18.14;88.07
69503;SHT31;56704;54.242;12.442;2022-07-01T03:02:18;18.19;87.70
69503;SHT31;56704;54.242;12.442;2022-07-01T03:04:45;18.25;87.59
69503;SHT31;56704;54.242;12.442;2022-07-01T03:07:12;18.25;87.49
69503;SHT31;56704;54.242;12.442;2022-07-01T03:09:38;18.22;87.76
69503;SHT31;56704;54.242;12.442;2022-07-01T03:12:06;18.25;87.64
69503;SHT31;56704;54.242;12.442;2022-07-01T03:14:47;18.26;87.57
69503;SHT31;56704;54.242;12.442;2022-07-01T03:17:14;18.30;87.42
69503;SHT31;56704;54.242;12.442;2022-07-01T03:19:42;18.27;87.69
69503;SHT31;56704;54.242;12.442;2022-07-01T03:22:09;18.26;87.69
69503;SHT31;56704;54.242;12.442;2022-07-01T03:24:36;18.26;87.76
69503;SHT31;56704;54.242;12.442;2022-07-01T03:27:03;18.33;87.39
69503;SHT31;56704;54.242;12.442;2022-07-01T03:29:32;18.37;87.28
69503;SHT31;56704;54.242;12.442;2022-07-01T03:32:01;18.32;87.46
69503;SHT31;56704;54.242;12.442;2022-07-01T03:34:28;18.33;87.30
69503;SHT31;56704;54.242;12.442;2022-07-01T03:36:57;18.33;87.43
69503;SHT31;56704;54.242;12.442;2022-07-01T03:39:23;18.32;87.48
69503;SHT31;56704;54.242;12.442;2022-07-01T03:41:50;18.38;87.39
69503;SHT31;56704;54.242;12.442;2022-07-01T03:44:18;18.33;87.50
69503;SHT31;56704;54.242;12.442;2022-07-01T03:46:47;18.34;87.55
69503;SHT31;56704;54.242;12.442;2022-07-01T03:49:14;18.34;87.54
69503;SHT31;56704;54.242;12.442;2022-07-01T03:51:41;18.40;87.32
69503;SHT31;56704;54.242;12.442;2022-07-01T03:54:10;18.46;87.18
69503;SHT31;56704;54.242;12.442;2022-07-01T03:56:55;18.47;86.99
69503;SHT31;56704;54.242;12.442;2022-07-01T03:59:22;18.48;86.98
69503;SHT31;56704;54.242;12.442;2022-07-01T04:01:48;18.46;86.97
69503;SHT31;56704;54.242;12.442;2022-07-01T04:04:17;18.47;86.95
69503;SHT31;56704;54.242;12.442;2022-07-01T04:06:46;18.47;86.89
69503;SHT31;56704;54.242;12.442;2022-07-01T04:09:16;18.48;86.82
69503;SHT31;56704;54.242;12.442;2022-07-01T04:11:43;18.46;87.01
69503;SHT31;56704;54.242;12.442;2022-07-01T04:14:12;18.51;86.90
69503;SHT31;56704;54.242;12.442;2022-07-01T04:16:40;18.43;87.04
69503;SHT31;56704;54.242;12.442;2022-07-01T04:19:07;18.37;87.18
69503;SHT31;56704;54.242;12.442;2022-07-01T04:21:37;18.41;87.07
69503;SHT31;56704;54.242;12.442;2022-07-01T04:24:25;18.43;87.11
69503;SHT31;56704;54.242;12.442;2022-07-01T04:26:58;18.47;86.91
69503;SHT31;56704;54.242;12.442;2022-07-01T04:29:26;18.41;86.98
69503;SHT31;56704;54.242;12.442;2022-07-01T04:31:54;18.51;86.73
69503;SHT31;56704;54.242;12.442;2022-07-01T04:34:21;18.58;86.51
69503;SHT31;56704;54.242;12.442;2022-07-01T04:36:48;18.65;86.41
69503;SHT31;56704;54.242;12.442;2022-07-01T04:39:15;18.64;86.35
69503;SHT31;56704;54.242;12.442;2022-07-01T04:41:44;18.68;86.20
69503;SHT31;56704;54.242;12.442;2022-07-01T04:44:26;18.75;86.03
69503;SHT31;56704;54.242;12.442;2022-07-01T04:46:53;18.69;86.08
69503;SHT31;56704;54.242;12.442;2022-07-01T04:49:21;18.75;85.99
69503;SHT31;56704;54.242;12.442;2022-07-01T04:51:50;18.71;86.00
69503;SHT31;56704;54.242;12.442;2022-07-01T04:54:19;18.67;86.11
69503;SHT31;56704;54.242;12.442;2022-07-01T04:56:47;18.57;86.39
69503;SHT31;56704;54.242;12.442;2022-07-01T04:59:15;18.56;86.43
69503;SHT31;56704;54.242;12.442;2022-07-01T05:01:43;18.58;86.49
69503;SHT31;56704;54.242;12.442;2022-07-01T05:04:14;18.61;86.36
69503;SHT31;56704;54.242;12.442;2022-07-01T05:06:44;18.68;86.24
69503;SHT31;56704;54.242;12.442;2022-07-01T05:09:11;18.77;86.17
69503;SHT31;56704;54.242;12.442;2022-07-01T05:11:40;18.87;86.02
69503;SHT31;56704;54.242;12.442;2022-07-01T05:14:09;18.84;85.82
69503;SHT31;56704;54.242;12.442;2022-07-01T05:16:36;18.74;85.75
69503;SHT31;56704;54.242;12.442;2022-07-01T05:19:05;18.74;85.82
69503;SHT31;56704;54.242;12.442;2022-07-01T05:21:49;18.72;85.99
69503;SHT31;56704;54.242;12.442;2022-07-01T05:24:22;18.74;85.91
69503;SHT31;56704;54.242;12.442;2022-07-01T05:26:51;18.81;85.87
69503;SHT31;56704;54.242;12.442;2022-07-01T05:29:21;18.74;85.88
69503;SHT31;56704;54.242;12.442;2022-07-01T05:31:50;18.71;86.11
69503;SHT31;56704;54.242;12.442;2022-07-01T05:34:17;18.78;86.13
69503;SHT31;56704;54.242;12.442;2022-07-01T05:36:47;18.72;86.21
69503;SHT31;56704;54.242;12.442;2022-07-01T05:39:15;18.85;86.00
69503;SHT31;56704;54.242;12.442;2022-07-01T05:41:42;18.88;85.89
69503;SHT31;56704;54.242;12.442;2022-07-01T05:44:09;18.84;85.84
69503;SHT31;56704;54.242;12.442;2022-07-01T05:46:38;18.91;85.85
69503;SHT31;56704;54.242;12.442;2022-07-01T05:49:06;18.83;86.13
69503;SHT31;56704;54.242;12.442;2022-07-01T05:51:33;18.68;86.28
69503;SHT31;56704;54.242;12.442;2022-07-01T05:54:01;18.63;86.69
69503;SHT31;56704;54.242;12.442;2022-07-01T05:56:28;18.75;86.60
69503;SHT31;56704;54.242;12.442;2022-07-01T05:58:54;18.95;86.31
69503;SHT31;56704;54.242;12.442;2022-07-01T06:01:22;19.15;85.78
69503;SHT31;56704;54.242;12.442;2022-07-01T06:03:51;19.25;85.23
69503;SHT31;56704;54.242;12.442;2022-07-01T06:06:18;19.28;84.84
69503;SHT31;56704;54.242;12.442;2022-07-01T06:08:45;19.38;84.55
69503;SHT31;56704;54.242;12.442;2022-07-01T06:11:11;19.42;84.20
69503;SHT31;56704;54.242;12.442;2022-07-01T06:13:41;19.49;84.11
69503;SHT31;56704;54.242;12.442;2022-07-01T06:16:08;19.45;84.39
69503;SHT31;56704;54.242;12.442;2022-07-01T06:18:35;19.50;84.19
69503;SHT31;56704;54.242;12.442;2022-07-01T06:21:04;19.52;83.84
69503;SHT31;56704;54.242;12.442;2022-07-01T06:23:32;19.71;83.68
69503;SHT31;56704;54.242;12.442;2022-07-01T06:25:59;19.71;83.42
69503;SHT31;56704;54.242;12.442;2022-07-01T06:28:26;19.74;83.25
69503;SHT31;56704;54.242;12.442;2022-07-01T06:30:56;19.77;83.14
69503;SHT31;56704;54.242;12.442;2022-07-01T06:33:24;19.71;83.24
69503;SHT31;56704;54.242;12.442;2022-07-01T06:35:55;19.83;82.96
69503;SHT31;56704;54.242;12.442;2022-07-01T06:38:24;19.84;82.73
69503;SHT31;56704;54.242;12.442;2022-07-01T06:40:53;19.70;82.89
69503;SHT31;56704;54.242;12.442;2022-07-01T06:43:37;19.67;83.17
69503;SHT31;56704;54.242;12.442;2022-07-01T06:46:06;19.69;82.91
69503;SHT31;56704;54.242;12.442;2022-07-01T06:48:34;19.55;83.22
69503;SHT31;56704;54.242;12.442;2022-07-01T06:51:01;19.55;83.35
69503;SHT31;56704;54.242;12.442;2022-07-01T06:53:29;19.47;83.29
69503;SHT31;56704;54.242;12.442;2022-07-01T06:55:56;19.42;83.56
69503;SHT31;56704;54.242;12.442;2022-07-01T06:58:23;19.46;83.57
69503;SHT31;56704;54.242;12.442;2022-07-01T07:00:51;19.42;83.54
69503;SHT31;56704;54.242;12.442;2022-07-01T07:03:17;19.43;83.81
69503;SHT31;56704;54.242;12.442;2022-07-01T07:05:44;19.63;83.38
69503;SHT31;56704;54.242;12.442;2022-07-01T07:08:12;19.83;82.86
69503;SHT31;56704;54.242;12.442;2022-07-01T07:10:40;19.80;82.56
69503;SHT31;56704;54.242;12.442;2022-07-01T07:13:07;19.94;82.47
69503;SHT31;56704;54.242;12.442;2022-07-01T07:15:37;20.03;82.40
69503;SHT31;56704;54.242;12.442;2022-07-01T07:18:09;20.22;81.93
69503;SHT31;56704;54.242;12.442;2022-07-01T07:20:36;20.34;81.50
69503;SHT31;56704;54.242;12.442;2022-07-01T07:23:03;20.53;81.06
69503;SHT31;56704;54.242;12.442;2022-07-01T07:25:31;20.68;80.39
69503;SHT31;56704;54.242;12.442;2022-07-01T07:28:00;20.86;80.01
69503;SHT31;56704;54.242;12.442;2022-07-01T07:30:26;21.03;79.31
69503;SHT31;56704;54.242;12.442;2022-07-01T07:32:55;20.99;79.27
69503;SHT31;56704;54.242;12.442;2022-07-01T07:35:24;21.00;79.21
69503;SHT31;56704;54.242;12.442;2022-07-01T07:37:50;20.95;79.24
69503;SHT31;56704;54.242;12.442;2022-07-01T07:40:19;20.93;79.14
69503;SHT31;56704;54.242;12.442;2022-07-01T07:42:49;20.77;79.60
69503;SHT31;56704;54.242;12.442;2022-07-01T07:45:19;20.58;79.97
69503;SHT31;56704;54.242;12.442;2022-07-01T07:47:47;20.61;79.88
69503;SHT31;56704;54.242;12.442;2022-07-01T07:50:18;20.64;79.85
69503;SHT31;56704;54.242;12.442;2022-07-01T07:52:45;20.58;79.86
69503;SHT31;56704;54.242;12.442;2022-07-01T07:55:12;20.45;80.56
69503;SHT31;56704;54.242;12.442;2022-07-01T07:57:41;20.21;81.83
69503;SHT31;56704;54.242;12.442;2022-07-01T08:00:11;20.13;82.77
69503;SHT31;56704;54.242;12.442;2022-07-01T08:02:41;19.91;84.28
69503;SHT31;56704;54.242;12.442;2022-07-01T08:05:09;19.78;85.05
69503;SHT31;56704;54.242;12.442;2022-07-01T08:07:36;19.77;85.64
69503;SHT31;56704;54.242;12.442;2022-07-01T08:10:04;19.76;86.41
69503;SHT31;56704;54.242;12.442;2022-07-01T08:12:32;19.84;87.14
69503;SHT31;56704;54.242;12.442;2022-07-01T08:14:59;19.80;87.47
69503;SHT31;56704;54.242;12.442;2022-07-01T08:17:25;19.80;87.56
69503;SHT31;56704;54.242;12.442;2022-07-01T08:19:53;19.81;87.66
69503;SHT31;56704;54.242;12.442;2022-07-01T08:22:20;19.87;88.34
69503;SHT31;56704;54.242;12.442;2022-07-01T08:24:47;19.86;87.93
69503;SHT31;56704;54.242;12.442;2022-07-01T08:27:14;19.77;87.81
69503;SHT31;56704;54.242;12.442;2022-07-01T08:29:43;19.78;88.08
69503;SHT31;56704;54.242;12.442;2022-07-01T08:32:10;19.71;87.86
69503;SHT31;56704;54.242;12.442;2022-07-01T08:34:37;19.63;87.80
69503;SHT31;56704;54.242;12.442;2022-07-01T08:37:06;19.59;88.44
69503;SHT31;56704;54.242;12.442;2022-07-01T08:39:33;19.53;88.74
69503;SHT31;56704;54.242;12.442;2022-07-01T08:41:59;19.50;91.02
69503;SHT31;56704;54.242;12.442;2022-07-01T08:44:26;19.32;92.74
69503;SHT31;56704;54.242;12.442;2022-07-01T08:46:54;19.25;92.89
69503;SHT31;56704;54.242;12.442;2022-07-01T08:49:21;19.15;92.70
69503;SHT31;56704;54.242;12.442;2022-07-01T08:51:51;19.02;92.89
69503;SHT31;56704;54.242;12.442;2022-07-01T08:54:19;18.99;92.94
69503;SHT31;56704;54.242;12.442;2022-07-01T08:56:46;18.98;92.64
69503;SHT31;56704;54.242;12.442;2022-07-01T08:59:22;18.99;92.70
69503;SHT31;56704;54.242;12.442;2022-07-01T09:01:54;18.88;92.76
69503;SHT31;56704;54.242;12.442;2022-07-01T09:04:21;18.68;92.79
69503;SHT31;56704;54.242;12.442;2022-07-01T09:06:48;18.53;92.83
69503;SHT31;56704;54.242;12.442;2022-07-01T09:09:17;18.64;92.84
69503;SHT31;56704;54.242;12.442;2022-07-01T09:11:49;18.64;92.85
69503;SHT31;56704;54.242;12.442;2022-07-01T09:14:20;18.58;92.92
69503;SHT31;56704;54.242;12.442;2022-07-01T09:16:50;18.50;92.91
69503;SHT31;56704;54.242;12.442;2022-07-01T09:19:19;18.41;92.95
69503;SHT31;56704;54.242;12.442;2022-07-01T09:21:50;18.26;92.97
69503;SHT31;56704;54.242;12.442;2022-07-01T09:24:26;18.27;92.99
69503;SHT31;56704;54.242;12.442;2022-07-01T09:26:57;18.25;93.00
69503;SHT31;56704;54.242;12.442;2022-07-01T09:29:28;18.23;93.08
69503;SHT31;56704;54.242;12.442;2022-07-01T09:31:57;18.36;93.04
69503;SHT31;56704;54.242;12.442;2022-07-01T09:34:26;18.44;93.04
69503;SHT31;56704;54.242;12.442;2022-07-01T09:36:54;18.53;93.10
69503;SHT31;56704;54.242;12.442;2022-07-01T09:39:21;18.68;93.11
69503;SHT31;56704;54.242;12.442;2022-07-01T09:41:48;18.68;93.13
69503;SHT31;56704;54.242;12.442;2022-07-01T09:44:17;18.75;93.09
69503;SHT31;56704;54.242;12.442;2022-07-01T09:46:55;18.87;93.14
69503;SHT31;56704;54.242;12.442;2022-07-01T09:49:22;18.99;93.13
69503;SHT31;56704;54.242;12.442;2022-07-01T09:51:50;19.08;93.12
69503;SHT31;56704;54.242;12.442;2022-07-01T09:54:18;19.19;93.14
69503;SHT31;56704;54.242;12.442;2022-07-01T09:56:49;19.36;93.16
69503;SHT31;56704;54.242;12.442;2022-07-01T09:59:18;19.57;93.17
69503;SHT31;56704;54.242;12.442;2022-07-01T10:01:46;19.76;93.15
69503;SHT31;56704;54.242;12.442;2022-07-01T10:04:14;19.94;93.17
69503;SHT31;56704;54.242;12.442;2022-07-01T10:07:01;20.10;93.17
69503;SHT31;56704;54.242;12.442;2022-07-01T10:12:35;20.15;93.19
69503;SHT31;56704;54.242;12.442;2022-07-01T10:15:08;19.96;93.18
69503;SHT31;56704;54.242;12.442;2022-07-01T10:17:37;19.88;93.21
69503;SHT31;56704;54.242;12.442;2022-07-01T10:20:11;19.67;93.25
69503;SHT31;56704;54.242;12.442;2022-07-01T10:22:39;19.65;93.24
69503;SHT31;56704;54.242;12.442;2022-07-01T10:25:29;19.50;93.28
69503;SHT31;56704;54.242;12.442;2022-07-01T10:28:15;19.38;93.27
69503;SHT31;56704;54.242;12.442;2022-07-01T10:30:54;19.47;93.31
69503;SHT31;56704;54.242;12.442;2022-07-01T10:33:43;19.40;93.32
69503;SHT31;56704;54.242;12.442;2022-07-01T10:36:16;19.42;93.33
69503;SHT31;56704;54.242;12.442;2022-07-01T10:41:58;19.12;93.38
69503;SHT31;56704;54.242;12.442;2022-07-01T10:44:26;19.16;93.38
69503;SHT31;56704;54.242;12.442;2022-07-01T10:47:03;19.16;93.37
69503;SHT31;56704;54.242;12.442;2022-07-01T10:49:53;19.12;93.43
69503;SHT31;56704;54.242;12.442;2022-07-01T10:52:21;19.08;93.40
69503;SHT31;56704;54.242;12.442;2022-07-01T10:54:53;19.14;93.40
69503;SHT31;56704;54.242;12.442;2022-07-01T10:57:33;19.15;93.43
69503;SHT31;56704;54.242;12.442;2022-07-01T11:00:26;19.20;93.43
69503;SHT31;56704;54.242;12.442;2022-07-01T11:03:18;19.18;93.44
69503;SHT31;56704;54.242;12.442;2022-07-01T11:05:50;19.18;93.44
69503;SHT31;56704;54.242;12.442;2022-07-01T11:08:18;19.32;93.47
69503;SHT31;56704;54.242;12.442;2022-07-01T11:10:51;19.46;93.45
69503;SHT31;56704;54.242;12.442;2022-07-01T11:13:19;19.49;93.45
69503;SHT31;56704;54.242;12.442;2022-07-01T11:15:47;19.40;93.49
69503;SHT31;56704;54.242;12.442;2022-07-01T11:18:16;19.23;93.49
69503;SHT31;56704;54.242;12.442;2022-07-01T11:20:44;19.16;93.51
69503;SHT31;56704;54.242;12.442;2022-07-01T11:23:12;19.08;93.50
69503;SHT31;56704;54.242;12.442;2022-07-01T11:25:39;19.07;93.50
69503;SHT31;56704;54.242;12.442;2022-07-01T11:28:06;19.09;93.53
69503;SHT31;56704;54.242;12.442;2022-07-01T11:30:33;19.16;93.56
69503;SHT31;56704;54.242;12.442;2022-07-01T11:32:59;19.04;93.54
69503;SHT31;56704;54.242;12.442;2022-07-01T11:35:29;18.69;93.56
69503;SHT31;56704;54.242;12.442;2022-07-01T11:38:15;18.32;93.60
69503;SHT31;56704;54.242;12.442;2022-07-01T11:41:01;18.13;93.63
69503;SHT31;56704;54.242;12.442;2022-07-01T11:43:30;18.09;93.64
69503;SHT31;56704;54.242;12.442;2022-07-01T11:46:01;18.00;93.63
69503;SHT31;56704;54.242;12.442;2022-07-01T11:48:33;17.98;93.65
69503;SHT31;56704;54.242;12.442;2022-07-01T11:51:11;17.86;93.67
69503;SHT31;56704;54.242;12.442;2022-07-01T11:53:41;17.83;93.66
69503;SHT31;56704;54.242;12.442;2022-07-01T11:56:08;17.74;93.69
69503;SHT31;56704;54.242;12.442;2022-07-01T11:58:47;17.76;93.68
69503;SHT31;56704;54.242;12.442;2022-07-01T12:01:24;17.67;93.67
69503;SHT31;56704;54.242;12.442;2022-07-01T12:03:53;17.68;93.70
69503;SHT31;56704;54.242;12.442;2022-07-01T12:06:26;17.58;93.76
69503;SHT31;56704;54.242;12.442;2022-07-01T12:08:54;17.52;93.75
69503;SHT31;56704;54.242;12.442;2022-07-01T12:11:23;17.47;93.74
69503;SHT31;56704;54.242;12.442;2022-07-01T12:13:51;17.47;93.74
69503;SHT31;56704;54.242;12.442;2022-07-01T12:16:19;17.37;93.75
69503;SHT31;56704;54.242;12.442;2022-07-01T12:18:57;17.23;93.80
69503;SHT31;56704;54.242;12.442;2022-07-01T12:21:26;17.16;93.77
69503;SHT31;56704;54.242;12.442;2022-07-01T12:24:04;17.14;93.78
69503;SHT31;56704;54.242;12.442;2022-07-01T12:26:34;17.03;93.79
69503;SHT31;56704;54.242;12.442;2022-07-01T12:29:01;17.00;93.84
69503;SHT31;56704;54.242;12.442;2022-07-01T12:31:29;16.90;93.80
69503;SHT31;56704;54.242;12.442;2022-07-01T12:33:59;16.84;93.83
69503;SHT31;56704;54.242;12.442;2022-07-01T12:36:28;16.80;93.85
69503;SHT31;56704;54.242;12.442;2022-07-01T12:39:03;16.81;93.86
69503;SHT31;56704;54.242;12.442;2022-07-01T12:41:35;16.79;93.84
69503;SHT31;56704;54.242;12.442;2022-07-01T12:44:20;16.79;93.87
69503;SHT31;56704;54.242;12.442;2022-07-01T12:46:51;16.77;93.83
69503;SHT31;56704;54.242;12.442;2022-07-01T12:49:23;16.86;93.88
69503;SHT31;56704;54.242;12.442;2022-07-01T12:51:51;16.91;93.85
69503;SHT31;56704;54.242;12.442;2022-07-01T12:54:29;16.90;93.86
69503;SHT31;56704;54.242;12.442;2022-07-01T12:56:59;16.97;93.88
69503;SHT31;56704;54.242;12.442;2022-07-01T12:59:26;16.90;93.90
69503;SHT31;56704;54.242;12.442;2022-07-01T13:01:53;16.83;93.88
69503;SHT31;56704;54.242;12.442;2022-07-01T13:04:24;16.81;93.92
69503;SHT31;56704;54.242;12.442;2022-07-01T13:06:53;16.83;93.88
69503;SHT31;56704;54.242;12.442;2022-07-01T13:09:24;16.77;93.89
69503;SHT31;56704;54.242;12.442;2022-07-01T13:11:53;16.80;93.91
69503;SHT31;56704;54.242;12.442;2022-07-01T13:14:23;16.84;93.92
69503;SHT31;56704;54.242;12.442;2022-07-01T13:16:51;16.86;93.85
69503;SHT31;56704;54.242;12.442;2022-07-01T13:19:20;16.86;93.91
69503;SHT31;56704;54.242;12.442;2022-07-01T13:21:48;16.96;93.93
69503;SHT31;56704;54.242;12.442;2022-07-01T13:24:15;16.87;93.93
69503;SHT31;56704;54.242;12.442;2022-07-01T13:26:42;16.83;93.91
69503;SHT31;56704;54.242;12.442;2022-07-01T13:29:11;16.77;93.96
69503;SHT31;56704;54.242;12.442;2022-07-01T13:31:39;16.83;93.96
69503;SHT31;56704;54.242;12.442;2022-07-01T13:34:06;16.76;93.92
69503;SHT31;56704;54.242;12.442;2022-07-01T13:36:33;16.62;93.95
69503;SHT31;56704;54.242;12.442;2022-07-01T13:38:59;16.65;94.00
69503;SHT31;56704;54.242;12.442;2022-07-01T13:41:31;16.69;93.94
69503;SHT31;56704;54.242;12.442;2022-07-01T13:44:02;16.70;93.98
69503;SHT31;56704;54.242;12.442;2022-07-01T13:46:31;16.65;93.97
69503;SHT31;56704;54.242;12.442;2022-07-01T13:48:58;16.63;93.96
69503;SHT31;56704;54.242;12.442;2022-07-01T13:51:27;16.56;93.99
69503;SHT31;56704;54.242;12.442;2022-07-01T13:53:53;16.51;94.01
69503;SHT31;56704;54.242;12.442;2022-07-01T13:56:22;16.46;94.00
69503;SHT31;56704;54.242;12.442;2022-07-01T13:58:51;16.51;94.03
69503;SHT31;56704;54.242;12.442;2022-07-01T14:01:19;16.38;94.04
69503;SHT31;56704;54.242;12.442;2022-07-01T14:03:46;16.25;94.05
69503;SHT31;56704;54.242;12.442;2022-07-01T14:06:13;16.30;94.09
69503;SHT31;56704;54.242;12.442;2022-07-01T14:08:40;16.33;94.01
69503;SHT31;56704;54.242;12.442;2022-07-01T14:11:08;16.22;94.08
69503;SHT31;56704;54.242;12.442;2022-07-01T14:13:35;16.14;94.06
69503;SHT31;56704;54.242;12.442;2022-07-01T14:16:03;16.11;94.05
69503;SHT31;56704;54.242;12.442;2022-07-01T14:18:33;16.22;94.06
69503;SHT31;56704;54.242;12.442;2022-07-01T14:21:00;16.21;94.10
69503;SHT31;56704;54.242;12.442;2022-07-01T14:23:27;16.21;94.05
69503;SHT31;56704;54.242;12.442;2022-07-01T14:25:57;16.18;94.07
69503;SHT31;56704;54.242;12.442;2022-07-01T14:28:26;16.18;94.08
69503;SHT31;56704;54.242;12.442;2022-07-01T14:30:54;16.17;94.06
69503;SHT31;56704;54.242;12.442;2022-07-01T14:33:25;16.21;94.06
69503;SHT31;56704;54.242;12.442;2022-07-01T14:35:53;16.32;94.07
69503;SHT31;56704;54.242;12.442;2022-07-01T14:38:23;16.30;94.03
69503;SHT31;56704;54.242;12.442;2022-07-01T14:40:50;16.36;94.06
69503;SHT31;56704;54.242;12.442;2022-07-01T14:43:17;16.36;94.06
69503;SHT31;56704;54.242;12.442;2022-07-01T14:45:45;16.32;94.07
69503;SHT31;56704;54.242;12.442;2022-07-01T14:48:11;16.36;94.06
69503;SHT31;56704;54.242;12.442;2022-07-01T14:50:41;16.30;94.09
69503;SHT31;56704;54.242;12.442;2022-07-01T14:53:09;16.19;94.05
69503;SHT31;56704;54.242;12.442;2022-07-01T14:55:37;16.17;94.07
69503;SHT31;56704;54.242;12.442;2022-07-01T14:58:03;16.12;94.09
69503;SHT31;56704;54.242;12.442;2022-07-01T15:00:31;16.09;94.07
69503;SHT31;56704;54.242;12.442;2022-07-01T15:03:02;16.05;94.08
69503;SHT31;56704;54.242;12.442;2022-07-01T15:05:29;16.00;94.10
69503;SHT31;56704;54.242;12.442;2022-07-01T15:07:59;16.01;94.07
69503;SHT31;56704;54.242;12.442;2022-07-01T15:10:27;15.98;94.08
69503;SHT31;56704;54.242;12.442;2022-07-01T15:12:55;15.94;94.09
69503;SHT31;56704;54.242;12.442;2022-07-01T15:15:22;15.88;94.13
69503;SHT31;56704;54.242;12.442;2022-07-01T15:17:48;15.97;94.09
69503;SHT31;56704;54.242;12.442;2022-07-01T15:20:16;15.96;94.08
69503;SHT31;56704;54.242;12.442;2022-07-01T15:22:44;15.98;94.10
69503;SHT31;56704;54.242;12.442;2022-07-01T15:25:13;15.91;94.10
69503;SHT31;56704;54.242;12.442;2022-07-01T15:27:44;15.98;94.09
69503;SHT31;56704;54.242;12.442;2022-07-01T15:30:14;15.98;94.11
69503;SHT31;56704;54.242;12.442;2022-07-01T15:32:42;15.98;94.11
69503;SHT31;56704;54.242;12.442;2022-07-01T15:35:08;16.04;94.11